sensor_id;sensor_type;location;lat;lon;timestamp;P1;durP1;ratioP1;P2;durP2;ratioP2
21903;SDS011;11116;51.554;7.812;2022-12-07T00:00:44;51.20;;;32.08;;
21903;SDS011;11116;51.554;7.812;2022-12-07T00:03:10;46.97;;;32.22;;
21903;SDS011;11116;51.554;7.812;2022-12-07T00:05:37;47.10;;;30.85;;
21903;SDS011;11116;51.554;7.812;2022-12-07T00:08:05;43.53;;;28.65;;
21903;SDS011;11116;51.554;7.812;2022-12-07T00:10:32;42.63;;;28.98;;
21903;SDS011;11116;51.554;7.812;2022-12-07T00:12:59;44.33;;;28.67;;
21903;SDS011;11116;51.554;7.812;2022-12-07T00:15:26;38.70;;;26.80;;
21903;SDS011;11116;51.554;7.812;2022-12-07T00:17:53;41.85;;;29.27;;
21903;SDS011;11116;51.554;7.812;2022-12-07T00:20:20;42.83;;;28.83;;
21903;SDS011;11116;51.554;7.812;2022-12-07T00:22:47;37.10;;;26.55;;
21903;SDS011;11116;51.554;7.812;2022-12-07T00:25:15;39.78;;;26.70;;
21903;SDS011;11116;51.554;7.812;2022-12-07T00:27:42;39.05;;;25.50;;
21903;SDS011;11116;51.554;7.812;2022-12-07T00:30:09;41.10;;;27.13;;
21903;SDS011;11116;51.554;7.812;2022-12-07T00:32:36;39.60;;;26.58;;
21903;SDS011;11116;51.554;7.812;2022-12-07T00:35:03;36.60;;;24.95;;
21903;SDS011;11116;51.554;7.812;2022-12-07T00:37:30;35.25;;;24.73;;
21903;SDS011;11116;51.554;7.812;2022-12-07T00:39:57;36.15;;;25.23;;
21903;SDS011;11116;51.554;7.812;2022-12-07T00:42:25;35.25;;;23.98;;
21903;SDS011;11116;51.554;7.812;2022-12-07T00:44:52;33.50;;;23.98;;
21903;SDS011;11116;51.554;7.812;2022-12-07T00:47:18;31.25;;;23.50;;
21903;SDS011;11116;51.554;7.812;2022-12-07T00:49:45;33.80;;;24.63;;
21903;SDS011;11116;51.554;7.812;2022-12-07T00:52:12;32.88;;;22.67;;
21903;SDS011;11116;51.554;7.812;2022-12-07T00:54:39;34.90;;;22.48;;
21903;SDS011;11116;51.554;7.812;2022-12-07T00:57:06;30.17;;;22.08;;
21903;SDS011;11116;51.554;7.812;2022-12-07T00:59:34;33.35;;;24.05;;
21903;SDS011;11116;51.554;7.812;2022-12-07T01:02:01;36.42;;;24.10;;
21903;SDS011;11116;51.554;7.812;2022-12-07T01:04:28;37.33;;;25.13;;
21903;SDS011;11116;51.554;7.812;2022-12-07T01:06:54;37.63;;;26.10;;
21903;SDS011;11116;51.554;7.812;2022-12-07T01:09:21;35.50;;;26.20;;
21903;SDS011;11116;51.554;7.812;2022-12-07T01:11:48;36.42;;;26.50;;
21903;SDS011;11116;51.554;7.812;2022-12-07T01:14:15;41.90;;;27.20;;
21903;SDS011;11116;51.554;7.812;2022-12-07T01:16:43;37.28;;;25.35;;
21903;SDS011;11116;51.554;7.812;2022-12-07T01:19:09;37.42;;;24.15;;
21903;SDS011;11116;51.554;7.812;2022-12-07T01:21:36;32.60;;;23.30;;
21903;SDS011;11116;51.554;7.812;2022-12-07T01:24:05;34.10;;;23.08;;
21903;SDS011;11116;51.554;7.812;2022-12-07T01:26:33;36.80;;;24.50;;
21903;SDS011;11116;51.554;7.812;2022-12-07T01:29:00;34.95;;;23.13;;
21903;SDS011;11116;51.554;7.812;2022-12-07T01:31:27;33.58;;;22.55;;
21903;SDS011;11116;51.554;7.812;2022-12-07T01:33:57;34.10;;;22.42;;
21903;SDS011;11116;51.554;7.812;2022-12-07T01:36:26;36.30;;;22.88;;
21903;SDS011;11116;51.554;7.812;2022-12-07T01:38:55;36.67;;;22.80;;
21903;SDS011;11116;51.554;7.812;2022-12-07T01:41:24;30.55;;;22.38;;
21903;SDS011;11116;51.554;7.812;2022-12-07T01:44:10;36.70;;;22.83;;
21903;SDS011;11116;51.554;7.812;2022-12-07T01:46:45;29.83;;;22.75;;
21903;SDS011;11116;51.554;7.812;2022-12-07T01:49:16;29.08;;;21.88;;
21903;SDS011;11116;51.554;7.812;2022-12-07T01:51:49;31.27;;;21.80;;
21903;SDS011;11116;51.554;7.812;2022-12-07T01:54:18;34.40;;;24.33;;
21903;SDS011;11116;51.554;7.812;2022-12-07T01:56:49;33.30;;;23.20;;
21903;SDS011;11116;51.554;7.812;2022-12-07T01:59:19;35.60;;;24.52;;
21903;SDS011;11116;51.554;7.812;2022-12-07T02:01:49;32.22;;;23.90;;
21903;SDS011;11116;51.554;7.812;2022-12-07T02:04:18;37.78;;;23.90;;
21903;SDS011;11116;51.554;7.812;2022-12-07T02:06:46;31.05;;;23.27;;
21903;SDS011;11116;51.554;7.812;2022-12-07T02:09:13;34.40;;;24.20;;
21903;SDS011;11116;51.554;7.812;2022-12-07T02:11:40;36.22;;;24.08;;
21903;SDS011;11116;51.554;7.812;2022-12-07T02:14:08;31.98;;;22.85;;
21903;SDS011;11116;51.554;7.812;2022-12-07T02:16:36;33.78;;;22.55;;
21903;SDS011;11116;51.554;7.812;2022-12-07T02:19:21;34.92;;;22.88;;
21903;SDS011;11116;51.554;7.812;2022-12-07T02:22:06;32.08;;;22.75;;
21903;SDS011;11116;51.554;7.812;2022-12-07T02:24:48;38.25;;;23.60;;
21903;SDS011;11116;51.554;7.812;2022-12-07T02:30:06;29.23;;;21.50;;
21903;SDS011;11116;51.554;7.812;2022-12-07T02:32:40;31.60;;;23.30;;
21903;SDS011;11116;51.554;7.812;2022-12-07T02:35:13;31.52;;;22.48;;
21903;SDS011;11116;51.554;7.812;2022-12-07T02:37:48;35.28;;;22.20;;
21903;SDS011;11116;51.554;7.812;2022-12-07T02:40:22;34.33;;;23.25;;
21903;SDS011;11116;51.554;7.812;2022-12-07T02:42:55;32.40;;;21.40;;
21903;SDS011;11116;51.554;7.812;2022-12-07T02:45:27;30.17;;;20.33;;
21903;SDS011;11116;51.554;7.812;2022-12-07T02:47:58;31.42;;;22.23;;
21903;SDS011;11116;51.554;7.812;2022-12-07T02:50:26;35.22;;;22.98;;
21903;SDS011;11116;51.554;7.812;2022-12-07T02:52:54;32.83;;;21.48;;
21903;SDS011;11116;51.554;7.812;2022-12-07T02:55:22;38.10;;;23.55;;
21903;SDS011;11116;51.554;7.812;2022-12-07T02:57:59;31.58;;;22.02;;
21903;SDS011;11116;51.554;7.812;2022-12-07T03:00:47;32.63;;;21.70;;
21903;SDS011;11116;51.554;7.812;2022-12-07T03:03:21;35.40;;;21.70;;
21903;SDS011;11116;51.554;7.812;2022-12-07T03:05:52;31.50;;;21.48;;
21903;SDS011;11116;51.554;7.812;2022-12-07T03:08:38;33.53;;;21.90;;
21903;SDS011;11116;51.554;7.812;2022-12-07T03:11:13;35.38;;;21.42;;
21903;SDS011;11116;51.554;7.812;2022-12-07T03:13:45;29.48;;;21.35;;
21903;SDS011;11116;51.554;7.812;2022-12-07T03:16:19;36.42;;;22.15;;
21903;SDS011;11116;51.554;7.812;2022-12-07T03:18:52;30.63;;;22.73;;
21903;SDS011;11116;51.554;7.812;2022-12-07T03:21:22;29.63;;;21.60;;
21903;SDS011;11116;51.554;7.812;2022-12-07T03:23:53;34.92;;;22.48;;
21903;SDS011;11116;51.554;7.812;2022-12-07T03:26:26;32.33;;;22.13;;
21903;SDS011;11116;51.554;7.812;2022-12-07T03:28:58;34.50;;;20.92;;
21903;SDS011;11116;51.554;7.812;2022-12-07T03:31:31;31.17;;;20.85;;
21903;SDS011;11116;51.554;7.812;2022-12-07T03:34:03;33.58;;;21.05;;
21903;SDS011;11116;51.554;7.812;2022-12-07T03:36:35;31.15;;;20.77;;
21903;SDS011;11116;51.554;7.812;2022-12-07T03:39:08;32.33;;;21.35;;
21903;SDS011;11116;51.554;7.812;2022-12-07T03:41:40;30.60;;;20.95;;
21903;SDS011;11116;51.554;7.812;2022-12-07T03:44:07;29.48;;;22.02;;
21903;SDS011;11116;51.554;7.812;2022-12-07T03:46:37;30.85;;;21.10;;
21903;SDS011;11116;51.554;7.812;2022-12-07T03:49:11;30.40;;;20.20;;
21903;SDS011;11116;51.554;7.812;2022-12-07T03:51:45;31.10;;;20.92;;
21903;SDS011;11116;51.554;7.812;2022-12-07T03:54:18;27.98;;;19.23;;
21903;SDS011;11116;51.554;7.812;2022-12-07T03:56:49;28.23;;;20.00;;
21903;SDS011;11116;51.554;7.812;2022-12-07T03:59:17;30.55;;;19.65;;
21903;SDS011;11116;51.554;7.812;2022-12-07T04:01:52;28.90;;;20.42;;
21903;SDS011;11116;51.554;7.812;2022-12-07T04:04:21;31.80;;;21.55;;
21903;SDS011;11116;51.554;7.812;2022-12-07T04:06:47;28.67;;;20.77;;
21903;SDS011;11116;51.554;7.812;2022-12-07T04:09:14;30.27;;;20.75;;
21903;SDS011;11116;51.554;7.812;2022-12-07T04:11:41;32.70;;;22.08;;
21903;SDS011;11116;51.554;7.812;2022-12-07T04:14:08;29.63;;;20.77;;
21903;SDS011;11116;51.554;7.812;2022-12-07T04:16:44;35.85;;;21.38;;
21903;SDS011;11116;51.554;7.812;2022-12-07T04:19:12;31.33;;;20.92;;
21903;SDS011;11116;51.554;7.812;2022-12-07T04:21:40;32.65;;;21.48;;
21903;SDS011;11116;51.554;7.812;2022-12-07T04:24:08;32.03;;;21.77;;
21903;SDS011;11116;51.554;7.812;2022-12-07T04:26:34;31.27;;;21.10;;
21903;SDS011;11116;51.554;7.812;2022-12-07T04:29:01;28.77;;;19.42;;
21903;SDS011;11116;51.554;7.812;2022-12-07T04:31:28;31.52;;;21.30;;
21903;SDS011;11116;51.554;7.812;2022-12-07T04:33:55;33.00;;;22.05;;
21903;SDS011;11116;51.554;7.812;2022-12-07T04:36:23;32.78;;;19.25;;
21903;SDS011;11116;51.554;7.812;2022-12-07T04:38:52;28.75;;;19.92;;
21903;SDS011;11116;51.554;7.812;2022-12-07T04:41:19;32.70;;;20.45;;
21903;SDS011;11116;51.554;7.812;2022-12-07T04:43:52;31.92;;;20.48;;
21903;SDS011;11116;51.554;7.812;2022-12-07T04:46:23;28.60;;;19.58;;
21903;SDS011;11116;51.554;7.812;2022-12-07T04:48:51;33.22;;;20.77;;
21903;SDS011;11116;51.554;7.812;2022-12-07T04:51:19;36.10;;;21.35;;
21903;SDS011;11116;51.554;7.812;2022-12-07T04:53:48;33.25;;;20.02;;
21903;SDS011;11116;51.554;7.812;2022-12-07T04:56:16;29.35;;;21.02;;
21903;SDS011;11116;51.554;7.812;2022-12-07T04:58:44;34.17;;;20.90;;
21903;SDS011;11116;51.554;7.812;2022-12-07T05:01:12;32.35;;;19.52;;
21903;SDS011;11116;51.554;7.812;2022-12-07T05:03:39;31.65;;;20.77;;
21903;SDS011;11116;51.554;7.812;2022-12-07T05:06:06;35.45;;;21.45;;
21903;SDS011;11116;51.554;7.812;2022-12-07T05:08:33;29.10;;;19.73;;
21903;SDS011;11116;51.554;7.812;2022-12-07T05:11:02;36.78;;;21.45;;
21903;SDS011;11116;51.554;7.812;2022-12-07T05:13:30;34.92;;;21.65;;
21903;SDS011;11116;51.554;7.812;2022-12-07T05:15:56;29.70;;;19.95;;
21903;SDS011;11116;51.554;7.812;2022-12-07T05:18:23;36.25;;;21.23;;
21903;SDS011;11116;51.554;7.812;2022-12-07T05:20:50;31.98;;;20.13;;
21903;SDS011;11116;51.554;7.812;2022-12-07T05:23:17;29.23;;;20.33;;
21903;SDS011;11116;51.554;7.812;2022-12-07T05:25:45;36.67;;;20.83;;
21903;SDS011;11116;51.554;7.812;2022-12-07T05:28:14;32.53;;;20.25;;
21903;SDS011;11116;51.554;7.812;2022-12-07T05:30:40;30.88;;;19.92;;
21903;SDS011;11116;51.554;7.812;2022-12-07T05:33:07;27.00;;;17.77;;
21903;SDS011;11116;51.554;7.812;2022-12-07T05:35:34;28.95;;;19.92;;
21903;SDS011;11116;51.554;7.812;2022-12-07T05:38:03;31.80;;;19.10;;
21903;SDS011;11116;51.554;7.812;2022-12-07T05:40:29;27.65;;;18.33;;
21903;SDS011;11116;51.554;7.812;2022-12-07T05:42:56;30.50;;;19.88;;
21903;SDS011;11116;51.554;7.812;2022-12-07T05:45:24;31.65;;;19.23;;
21903;SDS011;11116;51.554;7.812;2022-12-07T05:47:51;26.33;;;17.30;;
21903;SDS011;11116;51.554;7.812;2022-12-07T05:50:18;31.38;;;18.58;;
21903;SDS011;11116;51.554;7.812;2022-12-07T05:52:58;26.60;;;17.63;;
21903;SDS011;11116;51.554;7.812;2022-12-07T05:55:25;28.25;;;17.63;;
21903;SDS011;11116;51.554;7.812;2022-12-07T05:57:52;28.35;;;17.13;;
21903;SDS011;11116;51.554;7.812;2022-12-07T06:00:34;24.67;;;17.23;;
21903;SDS011;11116;51.554;7.812;2022-12-07T06:03:01;31.95;;;17.42;;
21903;SDS011;11116;51.554;7.812;2022-12-07T06:05:27;31.15;;;17.92;;
21903;SDS011;11116;51.554;7.812;2022-12-07T06:07:54;25.20;;;16.58;;
21903;SDS011;11116;51.554;7.812;2022-12-07T06:10:21;26.58;;;16.60;;
21903;SDS011;11116;51.554;7.812;2022-12-07T06:12:47;25.08;;;17.00;;
21903;SDS011;11116;51.554;7.812;2022-12-07T06:15:13;29.75;;;16.92;;
21903;SDS011;11116;51.554;7.812;2022-12-07T06:17:42;25.42;;;15.35;;
21903;SDS011;11116;51.554;7.812;2022-12-07T06:20:08;27.45;;;15.35;;
21903;SDS011;11116;51.554;7.812;2022-12-07T06:22:35;27.65;;;15.95;;
21903;SDS011;11116;51.554;7.812;2022-12-07T06:25:02;31.08;;;15.95;;
21903;SDS011;11116;51.554;7.812;2022-12-07T06:27:29;27.83;;;16.00;;
21903;SDS011;11116;51.554;7.812;2022-12-07T06:29:58;23.40;;;14.38;;
21903;SDS011;11116;51.554;7.812;2022-12-07T06:32:25;29.30;;;15.32;;
21903;SDS011;11116;51.554;7.812;2022-12-07T06:34:53;26.92;;;15.25;;
21903;SDS011;11116;51.554;7.812;2022-12-07T06:37:19;22.77;;;15.45;;
21903;SDS011;11116;51.554;7.812;2022-12-07T06:39:46;29.13;;;16.52;;
21903;SDS011;11116;51.554;7.812;2022-12-07T06:42:13;25.50;;;15.35;;
21903;SDS011;11116;51.554;7.812;2022-12-07T06:44:40;30.05;;;16.00;;
21903;SDS011;11116;51.554;7.812;2022-12-07T06:47:07;22.02;;;14.82;;
21903;SDS011;11116;51.554;7.812;2022-12-07T06:49:34;30.35;;;16.27;;
21903;SDS011;11116;51.554;7.812;2022-12-07T06:52:02;27.15;;;15.32;;
21903;SDS011;11116;51.554;7.812;2022-12-07T06:54:30;25.02;;;16.17;;
21903;SDS011;11116;51.554;7.812;2022-12-07T06:56:57;24.30;;;15.75;;
21903;SDS011;11116;51.554;7.812;2022-12-07T06:59:24;27.10;;;17.50;;
21903;SDS011;11116;51.554;7.812;2022-12-07T07:01:51;29.27;;;16.30;;
21903;SDS011;11116;51.554;7.812;2022-12-07T07:04:17;24.65;;;14.93;;
21903;SDS011;11116;51.554;7.812;2022-12-07T07:06:44;23.38;;;16.10;;
21903;SDS011;11116;51.554;7.812;2022-12-07T07:09:13;24.63;;;16.75;;
21903;SDS011;11116;51.554;7.812;2022-12-07T07:11:40;29.10;;;16.58;;
21903;SDS011;11116;51.554;7.812;2022-12-07T07:14:07;23.17;;;16.08;;
21903;SDS011;11116;51.554;7.812;2022-12-07T07:16:33;27.20;;;16.70;;
21903;SDS011;11116;51.554;7.812;2022-12-07T07:19:00;25.48;;;16.55;;
21903;SDS011;11116;51.554;7.812;2022-12-07T07:21:27;30.83;;;17.30;;
21903;SDS011;11116;51.554;7.812;2022-12-07T07:23:54;26.77;;;16.48;;
21903;SDS011;11116;51.554;7.812;2022-12-07T07:26:22;30.15;;;17.13;;
21903;SDS011;11116;51.554;7.812;2022-12-07T07:28:49;28.17;;;17.10;;
21903;SDS011;11116;51.554;7.812;2022-12-07T07:31:16;25.67;;;16.38;;
21903;SDS011;11116;51.554;7.812;2022-12-07T07:33:43;30.00;;;16.83;;
21903;SDS011;11116;51.554;7.812;2022-12-07T07:36:11;24.75;;;16.23;;
21903;SDS011;11116;51.554;7.812;2022-12-07T07:38:37;22.40;;;15.73;;
21903;SDS011;11116;51.554;7.812;2022-12-07T07:41:04;28.05;;;15.93;;
21903;SDS011;11116;51.554;7.812;2022-12-07T07:43:33;27.17;;;15.65;;
21903;SDS011;11116;51.554;7.812;2022-12-07T07:46:00;22.88;;;14.77;;
21903;SDS011;11116;51.554;7.812;2022-12-07T07:48:26;27.90;;;15.57;;
21903;SDS011;11116;51.554;7.812;2022-12-07T07:50:53;24.17;;;16.42;;
21903;SDS011;11116;51.554;7.812;2022-12-07T07:53:20;25.75;;;15.10;;
21903;SDS011;11116;51.554;7.812;2022-12-07T07:55:50;28.38;;;15.82;;
21903;SDS011;11116;51.554;7.812;2022-12-07T07:58:18;30.45;;;16.92;;
21903;SDS011;11116;51.554;7.812;2022-12-07T08:00:46;23.60;;;15.65;;
21903;SDS011;11116;51.554;7.812;2022-12-07T08:03:13;26.83;;;16.35;;
21903;SDS011;11116;51.554;7.812;2022-12-07T08:05:40;30.98;;;17.50;;
21903;SDS011;11116;51.554;7.812;2022-12-07T08:08:07;27.38;;;16.60;;
21903;SDS011;11116;51.554;7.812;2022-12-07T08:10:34;34.70;;;16.50;;
21903;SDS011;11116;51.554;7.812;2022-12-07T08:13:02;28.50;;;17.30;;
21903;SDS011;11116;51.554;7.812;2022-12-07T08:15:39;26.00;;;16.17;;
21903;SDS011;11116;51.554;7.812;2022-12-07T08:18:09;25.73;;;17.23;;
21903;SDS011;11116;51.554;7.812;2022-12-07T08:20:36;29.20;;;17.10;;
21903;SDS011;11116;51.554;7.812;2022-12-07T08:23:04;28.52;;;15.25;;
21903;SDS011;11116;51.554;7.812;2022-12-07T08:25:31;28.63;;;16.17;;
21903;SDS011;11116;51.554;7.812;2022-12-07T08:27:58;27.60;;;16.80;;
21903;SDS011;11116;51.554;7.812;2022-12-07T08:30:26;26.27;;;15.38;;
21903;SDS011;11116;51.554;7.812;2022-12-07T08:32:53;22.63;;;14.32;;
21903;SDS011;11116;51.554;7.812;2022-12-07T08:35:21;25.70;;;14.68;;
21903;SDS011;11116;51.554;7.812;2022-12-07T08:37:48;27.17;;;14.50;;
21903;SDS011;11116;51.554;7.812;2022-12-07T08:40:15;22.60;;;14.82;;
21903;SDS011;11116;51.554;7.812;2022-12-07T08:42:44;24.70;;;14.65;;
21903;SDS011;11116;51.554;7.812;2022-12-07T08:45:15;27.73;;;12.93;;
21903;SDS011;11116;51.554;7.812;2022-12-07T08:47:44;24.98;;;13.65;;
21903;SDS011;11116;51.554;7.812;2022-12-07T08:50:15;23.35;;;13.63;;
21903;SDS011;11116;51.554;7.812;2022-12-07T08:52:44;22.77;;;13.18;;
21903;SDS011;11116;51.554;7.812;2022-12-07T08:55:17;21.52;;;13.23;;
21903;SDS011;11116;51.554;7.812;2022-12-07T08:57:44;23.25;;;13.55;;
21903;SDS011;11116;51.554;7.812;2022-12-07T09:00:12;19.02;;;12.40;;
21903;SDS011;11116;51.554;7.812;2022-12-07T09:02:40;21.02;;;12.07;;
21903;SDS011;11116;51.554;7.812;2022-12-07T09:05:07;19.58;;;11.93;;
21903;SDS011;11116;51.554;7.812;2022-12-07T09:07:34;22.13;;;11.68;;
21903;SDS011;11116;51.554;7.812;2022-12-07T09:10:04;27.88;;;11.52;;
21903;SDS011;11116;51.554;7.812;2022-12-07T09:12:31;22.73;;;11.48;;
21903;SDS011;11116;51.554;7.812;2022-12-07T09:14:58;20.63;;;10.93;;
21903;SDS011;11116;51.554;7.812;2022-12-07T09:17:25;18.30;;;10.68;;
21903;SDS011;11116;51.554;7.812;2022-12-07T09:19:52;16.23;;;10.18;;
21903;SDS011;11116;51.554;7.812;2022-12-07T09:22:19;20.63;;;10.05;;
21903;SDS011;11116;51.554;7.812;2022-12-07T09:24:46;17.85;;;9.88;;
21903;SDS011;11116;51.554;7.812;2022-12-07T09:27:14;26.27;;;9.90;;
21903;SDS011;11116;51.554;7.812;2022-12-07T09:29:42;15.10;;;8.75;;
21903;SDS011;11116;51.554;7.812;2022-12-07T09:32:09;13.70;;;8.27;;
21903;SDS011;11116;51.554;7.812;2022-12-07T09:34:36;23.73;;;8.93;;
21903;SDS011;11116;51.554;7.812;2022-12-07T09:37:03;16.85;;;8.30;;
21903;SDS011;11116;51.554;7.812;2022-12-07T09:39:29;16.30;;;8.60;;
21903;SDS011;11116;51.554;7.812;2022-12-07T09:41:56;15.07;;;8.27;;
21903;SDS011;11116;51.554;7.812;2022-12-07T09:44:26;13.43;;;8.30;;
21903;SDS011;11116;51.554;7.812;2022-12-07T09:46:54;22.10;;;8.68;;
21903;SDS011;11116;51.554;7.812;2022-12-07T09:49:22;20.98;;;8.02;;
21903;SDS011;11116;51.554;7.812;2022-12-07T09:51:59;19.90;;;8.38;;
21903;SDS011;11116;51.554;7.812;2022-12-07T09:54:27;17.10;;;7.70;;
21903;SDS011;11116;51.554;7.812;2022-12-07T09:56:55;16.20;;;8.45;;
21903;SDS011;11116;51.554;7.812;2022-12-07T09:59:22;16.88;;;7.97;;
21903;SDS011;11116;51.554;7.812;2022-12-07T10:01:50;17.45;;;7.88;;
21903;SDS011;11116;51.554;7.812;2022-12-07T10:04:18;12.85;;;7.88;;
21903;SDS011;11116;51.554;7.812;2022-12-07T10:06:47;18.23;;;9.25;;
21903;SDS011;11116;51.554;7.812;2022-12-07T10:09:16;17.70;;;8.45;;
21903;SDS011;11116;51.554;7.812;2022-12-07T10:11:57;23.10;;;8.73;;
21903;SDS011;11116;51.554;7.812;2022-12-07T10:14:28;11.13;;;7.95;;
21903;SDS011;11116;51.554;7.812;2022-12-07T10:16:58;17.17;;;7.75;;
21903;SDS011;11116;51.554;7.812;2022-12-07T10:19:26;14.68;;;8.50;;
21903;SDS011;11116;51.554;7.812;2022-12-07T10:22:08;16.73;;;9.00;;
21903;SDS011;11116;51.554;7.812;2022-12-07T10:24:37;15.57;;;8.70;;
21903;SDS011;11116;51.554;7.812;2022-12-07T10:27:11;13.32;;;7.78;;
21903;SDS011;11116;51.554;7.812;2022-12-07T10:29:46;14.48;;;7.50;;
21903;SDS011;11116;51.554;7.812;2022-12-07T10:32:27;14.55;;;7.10;;
21903;SDS011;11116;51.554;7.812;2022-12-07T10:35:15;13.93;;;7.28;;
21903;SDS011;11116;51.554;7.812;2022-12-07T10:37:45;19.73;;;7.80;;
21903;SDS011;11116;51.554;7.812;2022-12-07T10:40:23;19.92;;;7.25;;
21903;SDS011;11116;51.554;7.812;2022-12-07T10:43:01;15.23;;;8.23;;
21903;SDS011;11116;51.554;7.812;2022-12-07T10:45:29;12.25;;;7.47;;
21903;SDS011;11116;51.554;7.812;2022-12-07T10:47:59;20.33;;;7.50;;
21903;SDS011;11116;51.554;7.812;2022-12-07T10:50:45;11.40;;;6.43;;
21903;SDS011;11116;51.554;7.812;2022-12-07T10:53:25;13.85;;;6.38;;
21903;SDS011;11116;51.554;7.812;2022-12-07T10:59:02;13.45;;;6.68;;
21903;SDS011;11116;51.554;7.812;2022-12-07T11:01:43;13.50;;;7.50;;
21903;SDS011;11116;51.554;7.812;2022-12-07T11:04:19;17.58;;;7.35;;
21903;SDS011;11116;51.554;7.812;2022-12-07T11:06:54;14.70;;;5.93;;
21903;SDS011;11116;51.554;7.812;2022-12-07T11:09:38;12.95;;;5.53;;
21903;SDS011;11116;51.554;7.812;2022-12-07T11:12:20;15.35;;;6.18;;
21903;SDS011;11116;51.554;7.812;2022-12-07T11:14:56;13.48;;;6.18;;
21903;SDS011;11116;51.554;7.812;2022-12-07T11:17:32;13.10;;;7.50;;
21903;SDS011;11116;51.554;7.812;2022-12-07T11:20:11;15.27;;;7.18;;
21903;SDS011;11116;51.554;7.812;2022-12-07T11:22:57;12.18;;;6.93;;
21903;SDS011;11116;51.554;7.812;2022-12-07T11:25:31;12.35;;;7.75;;
21903;SDS011;11116;51.554;7.812;2022-12-07T11:28:06;15.13;;;7.75;;
21903;SDS011;11116;51.554;7.812;2022-12-07T11:30:48;15.32;;;8.85;;
21903;SDS011;11116;51.554;7.812;2022-12-07T11:33:26;19.45;;;8.35;;
21903;SDS011;11116;51.554;7.812;2022-12-07T11:36:00;14.68;;;8.07;;
21903;SDS011;11116;51.554;7.812;2022-12-07T11:38:37;18.73;;;7.25;;
21903;SDS011;11116;51.554;7.812;2022-12-07T11:41:10;15.27;;;7.00;;
21903;SDS011;11116;51.554;7.812;2022-12-07T11:43:56;16.10;;;6.95;;
21903;SDS011;11116;51.554;7.812;2022-12-07T11:46:29;12.52;;;6.88;;
21903;SDS011;11116;51.554;7.812;2022-12-07T11:49:11;19.63;;;7.13;;
21903;SDS011;11116;51.554;7.812;2022-12-07T11:51:44;12.45;;;6.03;;
21903;SDS011;11116;51.554;7.812;2022-12-07T11:54:15;12.80;;;6.32;;
21903;SDS011;11116;51.554;7.812;2022-12-07T11:56:46;10.52;;;6.85;;
21903;SDS011;11116;51.554;7.812;2022-12-07T11:59:17;13.30;;;6.03;;
21903;SDS011;11116;51.554;7.812;2022-12-07T12:01:51;12.80;;;7.05;;
21903;SDS011;11116;51.554;7.812;2022-12-07T12:04:29;13.50;;;6.72;;
21903;SDS011;11116;51.554;7.812;2022-12-07T12:07:01;9.45;;;5.90;;
21903;SDS011;11116;51.554;7.812;2022-12-07T12:09:32;16.75;;;5.60;;
21903;SDS011;11116;51.554;7.812;2022-12-07T12:12:12;13.88;;;5.60;;
21903;SDS011;11116;51.554;7.812;2022-12-07T12:14:59;8.27;;;5.03;;
21903;SDS011;11116;51.554;7.812;2022-12-07T12:17:39;8.93;;;5.65;;
21903;SDS011;11116;51.554;7.812;2022-12-07T12:20:17;12.05;;;5.00;;
21903;SDS011;11116;51.554;7.812;2022-12-07T12:22:51;15.10;;;5.60;;
21903;SDS011;11116;51.554;7.812;2022-12-07T12:25:22;7.68;;;5.50;;
21903;SDS011;11116;51.554;7.812;2022-12-07T12:27:52;14.50;;;5.88;;
21903;SDS011;11116;51.554;7.812;2022-12-07T12:30:26;9.82;;;5.38;;
21903;SDS011;11116;51.554;7.812;2022-12-07T12:33:01;8.10;;;5.25;;
21903;SDS011;11116;51.554;7.812;2022-12-07T12:35:31;12.43;;;5.70;;
21903;SDS011;11116;51.554;7.812;2022-12-07T12:40:54;14.10;;;5.22;;
21903;SDS011;11116;51.554;7.812;2022-12-07T12:49:32;9.45;;;4.20;;
21903;SDS011;11116;51.554;7.812;2022-12-07T12:52:01;12.85;;;4.80;;
21903;SDS011;11116;51.554;7.812;2022-12-07T12:55:10;12.10;;;5.05;;
21903;SDS011;11116;51.554;7.812;2022-12-07T12:57:39;14.68;;;5.00;;
21903;SDS011;11116;51.554;7.812;2022-12-07T13:00:14;9.05;;;4.65;;
21903;SDS011;11116;51.554;7.812;2022-12-07T13:02:47;9.70;;;4.40;;
21903;SDS011;11116;51.554;7.812;2022-12-07T13:05:16;9.93;;;5.10;;
21903;SDS011;11116;51.554;7.812;2022-12-07T13:10:42;14.32;;;5.18;;
21903;SDS011;11116;51.554;7.812;2022-12-07T13:13:30;9.68;;;5.30;;
21903;SDS011;11116;51.554;7.812;2022-12-07T13:22:31;8.05;;;5.32;;
21903;SDS011;11116;51.554;7.812;2022-12-07T13:25:19;15.00;;;5.22;;
21903;SDS011;11116;51.554;7.812;2022-12-07T13:27:57;8.63;;;5.63;;
21903;SDS011;11116;51.554;7.812;2022-12-07T13:30:27;5.70;;;4.68;;
21903;SDS011;11116;51.554;7.812;2022-12-07T13:32:56;12.05;;;5.85;;
21903;SDS011;11116;51.554;7.812;2022-12-07T13:35:29;9.23;;;5.07;;
21903;SDS011;11116;51.554;7.812;2022-12-07T13:37:57;9.88;;;5.60;;
21903;SDS011;11116;51.554;7.812;2022-12-07T13:40:24;12.45;;;5.78;;
21903;SDS011;11116;51.554;7.812;2022-12-07T13:42:58;13.90;;;6.13;;
21903;SDS011;11116;51.554;7.812;2022-12-07T13:45:27;8.70;;;5.47;;
21903;SDS011;11116;51.554;7.812;2022-12-07T13:48:10;11.18;;;4.78;;
21903;SDS011;11116;51.554;7.812;2022-12-07T13:50:42;10.73;;;4.90;;
21903;SDS011;11116;51.554;7.812;2022-12-07T13:53:12;13.55;;;5.40;;
21903;SDS011;11116;51.554;7.812;2022-12-07T13:55:44;10.20;;;5.30;;
21903;SDS011;11116;51.554;7.812;2022-12-07T13:58:13;9.73;;;5.10;;
21903;SDS011;11116;51.554;7.812;2022-12-07T14:00:41;8.35;;;5.10;;
21903;SDS011;11116;51.554;7.812;2022-12-07T14:03:28;14.73;;;4.70;;
21903;SDS011;11116;51.554;7.812;2022-12-07T14:09:06;9.60;;;3.78;;
21903;SDS011;11116;51.554;7.812;2022-12-07T14:11:42;7.60;;;3.40;;
21903;SDS011;11116;51.554;7.812;2022-12-07T14:14:11;11.73;;;4.15;;
21903;SDS011;11116;51.554;7.812;2022-12-07T14:16:42;9.38;;;4.15;;
21903;SDS011;11116;51.554;7.812;2022-12-07T14:22:23;9.93;;;3.97;;
21903;SDS011;11116;51.554;7.812;2022-12-07T14:24:58;9.30;;;3.72;;
21903;SDS011;11116;51.554;7.812;2022-12-07T14:27:30;9.65;;;3.67;;
21903;SDS011;11116;51.554;7.812;2022-12-07T14:30:01;12.75;;;2.83;;
21903;SDS011;11116;51.554;7.812;2022-12-07T14:32:29;8.27;;;3.90;;
21903;SDS011;11116;51.554;7.812;2022-12-07T14:34:57;8.15;;;4.10;;
21903;SDS011;11116;51.554;7.812;2022-12-07T14:37:27;10.00;;;4.00;;
21903;SDS011;11116;51.554;7.812;2022-12-07T14:39:55;5.78;;;3.25;;
21903;SDS011;11116;51.554;7.812;2022-12-07T14:42:23;8.20;;;3.33;;
21903;SDS011;11116;51.554;7.812;2022-12-07T14:44:53;8.18;;;3.83;;
21903;SDS011;11116;51.554;7.812;2022-12-07T14:47:22;6.18;;;3.55;;
21903;SDS011;11116;51.554;7.812;2022-12-07T14:49:49;5.47;;;3.22;;
21903;SDS011;11116;51.554;7.812;2022-12-07T14:52:16;12.25;;;3.28;;
21903;SDS011;11116;51.554;7.812;2022-12-07T14:54:46;13.93;;;3.53;;
21903;SDS011;11116;51.554;7.812;2022-12-07T14:57:12;6.28;;;3.08;;
21903;SDS011;11116;51.554;7.812;2022-12-07T14:59:39;10.77;;;3.25;;
21903;SDS011;11116;51.554;7.812;2022-12-07T15:02:06;8.82;;;2.90;;
21903;SDS011;11116;51.554;7.812;2022-12-07T15:04:37;7.68;;;3.63;;
21903;SDS011;11116;51.554;7.812;2022-12-07T15:07:04;13.85;;;3.03;;
21903;SDS011;11116;51.554;7.812;2022-12-07T15:09:35;14.27;;;3.40;;
21903;SDS011;11116;51.554;7.812;2022-12-07T15:12:02;8.45;;;3.17;;
21903;SDS011;11116;51.554;7.812;2022-12-07T15:14:29;7.45;;;2.47;;
21903;SDS011;11116;51.554;7.812;2022-12-07T15:16:55;11.50;;;2.70;;